Kaniere, New Zealand
Current Conditions -  °F | °C
As of 1:00 AM on Friday 31 Oct 2014 (Local Time) from NZCH Reporting Station
Clear Clear  
Wind Chill: 61°   Ceiling: Unl
Heat Index: 61°   Visibility: 6mi
Dew Point: 37°   Wind: 17mph
Humidity: 42%   Direction: 300°WNW
Pressure: 29.47"   Gusts: NA
Location:  42.75°S, 171.01°E
Report Text: NZCH 301300Z AUTO 30015KT 9999 NCD 16/03 Q0998 NOSIG
Loading
Personal Weather Stations






























Interactive Weather Map
Tropical Storm Tracking
New forecast layout! Learn more

10-Day Weather Forecast

Advertisements
Track Severe Weather on mobile